createdAt,value
2018-07-23T00:01:21.551Z,16.69
2018-07-23T00:03:50.918Z,16.72
2018-07-23T00:06:19.684Z,16.69
2018-07-23T00:08:49.160Z,16.67
2018-07-23T00:11:17.836Z,16.69
2018-07-23T00:13:46.657Z,16.71
2018-07-23T00:16:22.683Z,16.70
2018-07-23T00:18:51.474Z,16.70
2018-07-23T00:21:20.256Z,16.68
2018-07-23T00:23:54.210Z,16.70
2018-07-23T00:26:22.959Z,16.75
2018-07-23T00:28:51.748Z,16.78
2018-07-23T00:31:20.641Z,16.80
2018-07-23T00:33:49.381Z,16.80
2018-07-23T00:36:18.394Z,16.84
2018-07-23T00:44:49.528Z,16.84
2018-07-23T00:47:18.235Z,16.85
2018-07-23T00:49:46.965Z,16.85
2018-07-23T00:52:15.745Z,16.85
2018-07-23T00:54:44.448Z,16.82
2018-07-23T00:57:13.565Z,16.83
2018-07-23T00:59:42.910Z,16.84
2018-07-23T01:02:11.843Z,16.86
2018-07-23T01:04:40.384Z,16.87
2018-07-23T01:07:09.614Z,16.82
2018-07-23T01:09:38.458Z,16.79
2018-07-23T01:12:07.419Z,16.75
2018-07-23T01:14:36.181Z,16.73
2018-07-23T01:17:05.463Z,16.72
2018-07-23T01:19:34.685Z,16.68
2018-07-23T01:22:03.334Z,16.59
2018-07-23T01:24:32.183Z,16.58
2018-07-23T01:27:01.078Z,16.58
2018-07-23T01:29:29.813Z,16.57
2018-07-23T01:31:58.550Z,16.57
2018-07-23T01:34:27.929Z,16.55
2018-07-23T01:36:56.944Z,16.58
2018-07-23T01:39:25.565Z,16.53
2018-07-23T01:41:54.690Z,16.47
2018-07-23T01:44:23.908Z,16.44
2018-07-23T01:46:52.870Z,16.40
2018-07-23T01:49:21.492Z,16.34
2018-07-23T01:51:50.239Z,16.27
2018-07-23T01:54:18.899Z,16.19
2018-07-23T01:56:47.560Z,16.20
2018-07-23T01:59:16.414Z,16.18
2018-07-23T02:01:45.565Z,16.15
2018-07-23T02:04:14.440Z,16.11
2018-07-23T02:06:43.100Z,16.08
2018-07-23T02:09:13.353Z,16.10
2018-07-23T02:11:42.500Z,16.09
2018-07-23T02:14:11.884Z,16.10
2018-07-23T02:16:41.895Z,16.05
2018-07-23T02:19:11.142Z,16.00
2018-07-23T02:21:40.040Z,15.98
2018-07-23T02:24:10.189Z,15.99
2018-07-23T02:26:39.744Z,15.99
2018-07-23T02:29:09.116Z,15.94
2018-07-23T02:31:38.209Z,15.92
2018-07-23T02:34:07.632Z,15.92
2018-07-23T02:36:36.379Z,15.88
2018-07-23T02:39:08.399Z,15.89
2018-07-23T02:41:37.161Z,15.92
2018-07-23T02:44:06.221Z,15.92
2018-07-23T02:46:35.463Z,15.92
2018-07-23T02:49:04.226Z,15.95
2018-07-23T02:51:33.007Z,15.98
2018-07-23T02:54:02.171Z,16.02
2018-07-23T02:56:30.844Z,16.06
2018-07-23T02:58:59.884Z,16.06
2018-07-23T03:01:28.829Z,16.02
2018-07-23T03:03:58.032Z,16.00
2018-07-23T03:06:28.645Z,15.97
2018-07-23T03:08:57.630Z,15.98
2018-07-23T03:11:26.816Z,15.99
2018-07-23T03:13:55.944Z,16.04
2018-07-23T03:16:24.860Z,16.08
2018-07-23T03:18:54.374Z,16.04
2018-07-23T03:21:23.274Z,16.02
2018-07-23T03:23:52.826Z,16.00
2018-07-23T03:26:21.569Z,16.01
2018-07-23T03:28:50.326Z,16.05
2018-07-23T03:31:19.820Z,16.06
2018-07-23T03:33:48.826Z,16.08
2018-07-23T03:36:17.592Z,16.12
2018-07-23T03:38:46.322Z,16.16
2018-07-23T03:41:15.125Z,16.20
2018-07-23T03:43:44.675Z,16.24
2018-07-23T03:46:13.667Z,16.23
2018-07-23T03:48:42.451Z,16.23
2018-07-23T03:51:11.319Z,16.28
2018-07-23T03:53:39.904Z,16.32
2018-07-23T03:56:08.747Z,16.32
2018-07-23T03:58:39.131Z,16.31
2018-07-23T04:01:07.886Z,16.32
2018-07-23T04:03:36.638Z,16.32
2018-07-23T04:06:05.371Z,16.32
2018-07-23T04:08:34.085Z,16.30
2018-07-23T04:11:02.776Z,16.30
2018-07-23T04:13:31.417Z,16.29
2018-07-23T04:16:00.276Z,16.32
2018-07-23T04:18:29.907Z,16.38
2018-07-23T04:20:58.754Z,16.40
2018-07-23T04:23:27.433Z,16.44
2018-07-23T04:25:56.380Z,16.47
2018-07-23T04:28:25.202Z,16.45
2018-07-23T04:30:54.056Z,16.52
2018-07-23T04:33:23.020Z,16.56
2018-07-23T04:35:51.685Z,16.62
2018-07-23T04:38:20.626Z,16.65
2018-07-23T04:40:49.681Z,16.66
2018-07-23T04:43:18.383Z,16.65
2018-07-23T04:45:47.140Z,16.65
2018-07-23T04:48:15.855Z,16.63
2018-07-23T04:50:44.974Z,16.65
2018-07-23T04:53:14.100Z,16.66
2018-07-23T04:55:42.885Z,16.68
2018-07-23T04:58:11.772Z,16.69
2018-07-23T05:00:41.401Z,16.72
2018-07-23T05:03:09.973Z,16.77
2018-07-23T05:05:39.314Z,16.79
2018-07-23T05:08:08.490Z,16.85
2018-07-23T05:10:37.434Z,16.87
2018-07-23T05:13:06.846Z,16.91
2018-07-23T05:15:35.639Z,16.93
2018-07-23T05:18:04.310Z,16.87
2018-07-23T05:20:33.130Z,16.94
2018-07-23T05:23:01.895Z,16.95
2018-07-23T05:25:30.710Z,16.93
2018-07-23T05:28:00.030Z,16.97
2018-07-23T05:30:28.811Z,17.01
2018-07-23T05:32:57.487Z,17.07
2018-07-23T05:35:26.275Z,17.13
2018-07-23T05:37:55.189Z,17.17
2018-07-23T05:40:23.996Z,17.23
2018-07-23T05:42:52.942Z,17.25
2018-07-23T05:45:21.607Z,17.21
2018-07-23T05:47:50.351Z,17.24
2018-07-23T05:50:19.069Z,17.30
2018-07-23T05:52:47.655Z,17.34
2018-07-23T05:55:16.414Z,17.33
2018-07-23T05:57:45.096Z,17.41
2018-07-23T06:00:14.565Z,17.43
2018-07-23T06:02:43.561Z,17.46
2018-07-23T06:05:12.592Z,17.52
2018-07-23T06:07:41.200Z,17.57
2018-07-23T06:10:09.935Z,17.58
2018-07-23T06:12:39.027Z,17.58
2018-07-23T06:15:08.921Z,17.63
2018-07-23T06:17:37.987Z,17.66
2018-07-23T06:20:08.030Z,17.72
2018-07-23T06:22:37.001Z,17.72
2018-07-23T06:25:06.925Z,17.65
2018-07-23T06:27:35.680Z,17.76
2018-07-23T06:30:05.419Z,17.88
2018-07-23T06:32:34.853Z,17.98
2018-07-23T06:35:03.522Z,18.11
2018-07-23T06:37:32.335Z,18.22
2018-07-23T06:40:01.015Z,18.19
2018-07-23T06:42:30.376Z,18.24
2018-07-23T06:44:59.625Z,18.29
2018-07-23T06:47:28.591Z,18.41
2018-07-23T06:49:58.092Z,18.43
2018-07-23T06:52:27.027Z,18.47
2018-07-23T06:54:55.802Z,18.54
2018-07-23T06:57:24.483Z,18.60
2018-07-23T06:59:53.352Z,18.56
2018-07-23T07:02:21.999Z,18.57
2018-07-23T07:04:50.976Z,18.70
2018-07-23T07:07:19.626Z,18.99
2018-07-23T07:09:48.497Z,19.19
2018-07-23T07:12:17.531Z,19.36
2018-07-23T07:14:46.407Z,19.49
2018-07-23T07:17:15.251Z,19.59
2018-07-23T07:19:44.085Z,19.58
2018-07-23T07:22:12.902Z,19.64
2018-07-23T07:24:42.534Z,19.74
2018-07-23T07:27:11.290Z,19.85
2018-07-23T07:29:40.179Z,19.88
2018-07-23T07:32:08.872Z,19.91
2018-07-23T07:34:37.533Z,19.99
2018-07-23T07:37:06.317Z,20.13
2018-07-23T07:39:35.342Z,20.18
2018-07-23T07:42:04.510Z,20.38
2018-07-23T07:44:33.777Z,20.43
2018-07-23T07:47:03.370Z,20.40
2018-07-23T07:49:33.214Z,20.50
2018-07-23T07:52:01.830Z,20.65
2018-07-23T07:54:30.797Z,20.72
2018-07-23T07:57:00.478Z,20.91
2018-07-23T07:59:29.152Z,21.02
2018-07-23T08:01:58.281Z,21.02
2018-07-23T08:04:27.118Z,21.05
2018-07-23T08:06:55.863Z,21.26
2018-07-23T08:09:25.468Z,21.45
2018-07-23T08:11:54.381Z,21.88
2018-07-23T08:14:23.584Z,22.14
2018-07-23T08:16:53.266Z,22.42
2018-07-23T08:19:22.008Z,22.95
2018-07-23T08:21:51.138Z,23.27
2018-07-23T08:24:20.032Z,23.84
2018-07-23T08:26:48.764Z,24.56
2018-07-23T08:29:17.593Z,24.89
2018-07-23T08:31:47.393Z,25.28
2018-07-23T08:34:16.011Z,25.97
2018-07-23T08:36:44.851Z,27.18
2018-07-23T08:39:13.474Z,28.30
2018-07-23T08:41:42.123Z,29.81
2018-07-23T08:44:11.244Z,29.65
2018-07-23T08:46:40.117Z,29.27
2018-07-23T08:49:08.932Z,29.31
2018-07-23T08:51:37.843Z,28.80
2018-07-23T08:54:06.601Z,28.66
2018-07-23T08:56:35.442Z,27.50
2018-07-23T08:59:04.287Z,27.33
2018-07-23T09:01:33.843Z,26.88
2018-07-23T09:04:02.656Z,26.98
2018-07-23T09:06:31.480Z,27.19
2018-07-23T09:09:00.571Z,27.41
2018-07-23T09:11:30.713Z,27.57
2018-07-23T09:13:59.757Z,27.69
2018-07-23T09:16:28.376Z,28.49
2018-07-23T09:18:57.358Z,29.26
2018-07-23T09:21:26.292Z,30.04
2018-07-23T09:23:55.942Z,31.33
2018-07-23T09:26:24.691Z,32.59
2018-07-23T09:28:53.332Z,33.29
2018-07-23T09:31:22.256Z,33.51
2018-07-23T09:33:51.811Z,34.30
2018-07-23T09:36:21.071Z,34.52
2018-07-23T09:38:50.837Z,34.60
2018-07-23T09:41:20.407Z,35.10
2018-07-23T09:43:49.281Z,35.60
2018-07-23T09:46:18.108Z,35.18
2018-07-23T09:48:47.012Z,35.90
2018-07-23T09:51:15.882Z,35.29
2018-07-23T09:53:44.587Z,36.06
2018-07-23T09:56:13.463Z,37.32
2018-07-23T09:58:42.266Z,36.78
2018-07-23T10:01:12.365Z,37.36
2018-07-23T10:03:42.062Z,37.77
2018-07-23T10:06:10.972Z,37.88
2018-07-23T10:08:39.930Z,38.46
2018-07-23T10:11:09.167Z,38.47
2018-07-23T10:13:38.616Z,38.59
2018-07-23T10:16:07.387Z,38.44
2018-07-23T10:18:36.077Z,37.37
2018-07-23T10:21:04.927Z,35.42
2018-07-23T10:23:34.351Z,34.93
2018-07-23T10:26:03.123Z,35.64
2018-07-23T10:28:31.968Z,37.61
2018-07-23T10:31:00.906Z,38.27
2018-07-23T10:33:30.059Z,38.48
2018-07-23T10:35:58.677Z,39.11
2018-07-23T10:38:27.615Z,39.03
2018-07-23T10:40:57.038Z,38.01
2018-07-23T10:43:25.770Z,38.08
2018-07-23T10:45:55.593Z,37.82
2018-07-23T10:48:24.553Z,35.92
2018-07-23T10:50:53.514Z,35.78
2018-07-23T10:53:22.196Z,36.33
2018-07-23T10:55:50.877Z,36.13
2018-07-23T10:58:19.757Z,36.26
2018-07-23T11:00:48.736Z,35.67
2018-07-23T11:03:18.185Z,34.15
2018-07-23T11:05:47.061Z,33.30
2018-07-23T11:08:15.711Z,32.97
2018-07-23T11:10:44.726Z,33.35
2018-07-23T11:13:13.931Z,32.29
2018-07-23T11:15:42.732Z,32.70
2018-07-23T11:18:11.539Z,33.13
2018-07-23T11:20:40.516Z,32.89
2018-07-23T11:23:09.464Z,32.59
2018-07-23T11:25:39.408Z,31.06
2018-07-23T11:28:07.299Z,31.53
2018-07-23T11:30:36.393Z,31.61
2018-07-23T11:33:05.579Z,31.66
2018-07-23T11:35:34.312Z,32.14
2018-07-23T11:38:03.093Z,32.07
2018-07-23T11:40:32.267Z,31.91
2018-07-23T11:43:01.923Z,31.24
2018-07-23T11:45:31.103Z,31.21
2018-07-23T11:48:00.142Z,31.17
2018-07-23T11:50:28.949Z,31.32
2018-07-23T11:52:57.699Z,31.30
2018-07-23T11:55:26.739Z,31.14
2018-07-23T11:57:55.459Z,31.09
2018-07-23T12:00:24.279Z,30.86
2018-07-23T12:02:54.438Z,30.69
2018-07-23T12:05:23.282Z,30.86
2018-07-23T12:07:52.223Z,30.83
2018-07-23T12:10:21.037Z,30.81
2018-07-23T12:12:50.554Z,30.17
2018-07-23T12:15:19.548Z,30.03
2018-07-23T12:17:48.527Z,30.18
2018-07-23T12:20:17.997Z,30.35
2018-07-23T12:22:48.192Z,30.46
2018-07-23T12:25:17.123Z,30.35
2018-07-23T12:27:45.891Z,30.24
2018-07-23T12:30:14.515Z,29.98
2018-07-23T12:32:44.022Z,29.76
2018-07-23T12:35:12.678Z,29.72
2018-07-23T12:37:41.618Z,29.80
2018-07-23T12:40:10.732Z,30.07
2018-07-23T12:42:39.555Z,30.20
2018-07-23T12:45:08.287Z,29.59
2018-07-23T12:47:37.564Z,29.80
2018-07-23T12:50:06.238Z,29.85
2018-07-23T12:52:34.936Z,29.80
2018-07-23T12:55:04.148Z,30.03
2018-07-23T12:57:32.784Z,30.17
2018-07-23T13:00:01.626Z,30.28
2018-07-23T13:02:30.279Z,30.28
2018-07-23T13:04:59.037Z,30.26
2018-07-23T13:07:28.690Z,30.27
2018-07-23T13:09:57.492Z,29.91
2018-07-23T13:12:26.140Z,30.39
2018-07-23T13:14:54.968Z,30.56
2018-07-23T13:17:24.298Z,30.89
2018-07-23T13:19:53.128Z,30.85
2018-07-23T13:22:21.766Z,30.56
2018-07-23T13:24:50.533Z,30.41
2018-07-23T13:27:19.143Z,30.40
2018-07-23T13:29:47.951Z,30.27
2018-07-23T13:32:16.548Z,30.31
2018-07-23T13:34:45.368Z,29.93
2018-07-23T13:37:14.074Z,29.85
2018-07-23T13:39:42.687Z,29.94
2018-07-23T13:42:11.493Z,30.16
2018-07-23T13:44:41.115Z,30.15
2018-07-23T13:47:09.959Z,30.46
2018-07-23T13:49:39.294Z,30.50
2018-07-23T13:52:08.475Z,30.47
2018-07-23T13:54:37.240Z,30.43
2018-07-23T13:57:05.982Z,30.65
2018-07-23T13:59:35.077Z,30.47
2018-07-23T14:02:04.430Z,30.52
2018-07-23T14:04:33.813Z,30.21
2018-07-23T14:07:02.794Z,30.16
2018-07-23T14:09:31.508Z,30.19
2018-07-23T14:12:00.195Z,30.15
2018-07-23T14:14:28.916Z,30.14
2018-07-23T14:16:57.722Z,30.01
2018-07-23T14:19:26.492Z,30.03
2018-07-23T14:21:55.620Z,29.82
2018-07-23T14:24:24.405Z,29.94
2018-07-23T14:26:53.038Z,29.97
2018-07-23T14:29:21.930Z,29.68
2018-07-23T14:31:50.545Z,29.39
2018-07-23T14:34:19.773Z,29.32
2018-07-23T14:36:48.569Z,29.26
2018-07-23T14:39:17.368Z,29.13
2018-07-23T14:41:46.019Z,29.09
2018-07-23T14:44:14.772Z,28.77
2018-07-23T14:46:43.484Z,28.71
2018-07-23T14:49:12.763Z,28.63
2018-07-23T14:51:41.514Z,28.63
2018-07-23T14:54:10.209Z,28.64
2018-07-23T14:56:38.853Z,28.76
2018-07-23T14:59:07.544Z,28.75
2018-07-23T15:01:36.303Z,28.83
2018-07-23T15:04:05.089Z,28.93
2018-07-23T15:06:33.813Z,29.01
2018-07-23T15:09:02.437Z,28.96
2018-07-23T15:11:31.024Z,28.84
2018-07-23T15:13:59.959Z,28.78
2018-07-23T15:16:29.305Z,28.71
2018-07-23T15:18:57.989Z,28.78
2018-07-23T15:21:26.689Z,28.67
2018-07-23T15:23:55.327Z,28.46
2018-07-23T15:26:24.145Z,28.54
2018-07-23T15:28:53.049Z,28.31
2018-07-23T15:31:21.919Z,28.09
2018-07-23T15:33:50.964Z,28.08
2018-07-23T15:36:19.766Z,28.15
2018-07-23T15:38:49.138Z,28.24
2018-07-23T15:41:17.811Z,28.27
2018-07-23T15:43:46.674Z,28.06
2018-07-23T15:46:15.761Z,28.09
2018-07-23T15:48:45.026Z,28.15
2018-07-23T15:51:13.651Z,28.24
2018-07-23T15:53:42.953Z,28.16
2018-07-23T15:56:11.679Z,28.19
2018-07-23T15:58:40.448Z,28.14
2018-07-23T16:01:09.453Z,28.16
2018-07-23T16:03:38.109Z,28.11
2018-07-23T16:06:06.890Z,28.02
2018-07-23T16:08:35.545Z,27.93
2018-07-23T16:11:04.344Z,27.77
2018-07-23T16:13:33.235Z,27.67
2018-07-23T16:16:02.960Z,27.64
2018-07-23T16:18:31.746Z,27.58
2018-07-23T16:21:01.511Z,27.55
2018-07-23T16:23:30.447Z,27.52
2018-07-23T16:25:59.890Z,27.51
2018-07-23T16:28:28.652Z,27.56
2018-07-23T16:30:57.303Z,27.57
2018-07-23T16:33:26.075Z,27.59
2018-07-23T16:35:54.853Z,27.52
2018-07-23T16:38:23.855Z,27.47
2018-07-23T16:40:53.361Z,27.47
2018-07-23T16:43:22.393Z,27.48
2018-07-23T16:45:57.697Z,27.47
2018-07-23T16:48:26.624Z,27.37
2018-07-23T16:50:55.977Z,27.38
2018-07-23T16:53:25.293Z,27.34
2018-07-23T16:55:53.919Z,27.30
2018-07-23T16:58:22.534Z,27.25
2018-07-23T17:00:51.322Z,27.23
2018-07-23T17:03:20.326Z,27.18
2018-07-23T17:05:49.478Z,27.10
2018-07-23T17:08:18.500Z,27.06
2018-07-23T17:10:47.405Z,27.02
2018-07-23T17:13:16.235Z,27.01
2018-07-23T17:15:45.204Z,26.97
2018-07-23T17:18:13.998Z,26.94
2018-07-23T17:20:42.635Z,26.84
2018-07-23T17:23:11.230Z,26.71
2018-07-23T17:25:40.035Z,26.52
2018-07-23T17:28:09.498Z,26.44
2018-07-23T17:30:39.551Z,26.39
2018-07-23T17:33:08.994Z,26.07
2018-07-23T17:35:37.700Z,25.89
2018-07-23T17:38:06.331Z,25.98
2018-07-23T17:40:34.934Z,25.92
2018-07-23T17:43:03.633Z,25.81
2018-07-23T17:45:32.480Z,25.69
2018-07-23T17:48:01.973Z,25.58
2018-07-23T17:50:31.385Z,25.51
2018-07-23T17:53:00.979Z,25.44
2018-07-23T17:55:29.735Z,25.38
2018-07-23T17:57:58.805Z,25.28
2018-07-23T18:00:27.750Z,25.18
2018-07-23T18:02:56.420Z,25.09
2018-07-23T18:05:26.021Z,24.97
2018-07-23T18:07:54.833Z,24.85
2018-07-23T18:10:23.445Z,24.74
2018-07-23T18:12:52.335Z,24.63
2018-07-23T18:15:21.240Z,24.54
2018-07-23T18:17:49.931Z,24.46
2018-07-23T18:20:18.904Z,24.38
2018-07-23T18:22:47.660Z,24.33
2018-07-23T18:25:16.456Z,24.26
2018-07-23T18:27:45.931Z,24.17
2018-07-23T18:30:14.978Z,24.09
2018-07-23T18:32:43.833Z,23.96
2018-07-23T18:35:12.656Z,23.85
2018-07-23T18:37:41.782Z,23.76
2018-07-23T18:40:10.831Z,23.63
2018-07-23T18:42:40.417Z,23.53
2018-07-23T18:45:09.456Z,23.43
2018-07-23T18:47:38.539Z,23.38
2018-07-23T18:50:07.810Z,23.28
2018-07-23T18:52:36.925Z,23.19
2018-07-23T18:55:06.165Z,23.08
2018-07-23T18:57:35.346Z,22.95
2018-07-23T19:00:04.403Z,22.86
2018-07-23T19:02:33.106Z,22.82
2018-07-23T19:05:02.660Z,22.74
2018-07-23T19:07:32.379Z,22.61
2018-07-23T19:10:01.778Z,22.44
2018-07-23T19:12:30.571Z,22.26
2018-07-23T19:15:00.129Z,22.23
2018-07-23T19:17:29.494Z,22.22
2018-07-23T19:19:58.265Z,22.12
2018-07-23T19:22:26.979Z,21.78
2018-07-23T19:24:55.666Z,21.64
2018-07-23T19:27:24.340Z,21.60
2018-07-23T19:29:53.315Z,21.60
2018-07-23T19:32:22.922Z,21.53
2018-07-23T19:34:51.474Z,21.49
2018-07-23T19:37:20.127Z,21.44
2018-07-23T19:39:48.787Z,21.42
2018-07-23T19:42:17.532Z,21.34
2018-07-23T19:44:46.114Z,21.28
2018-07-23T19:47:14.736Z,21.21
2018-07-23T19:49:43.375Z,21.18
2018-07-23T19:52:12.119Z,21.15
2018-07-23T19:54:40.915Z,20.88
2018-07-23T19:57:09.870Z,20.73
2018-07-23T19:59:38.474Z,20.72
2018-07-23T20:02:07.384Z,20.72
2018-07-23T20:04:36.027Z,20.68
2018-07-23T20:07:05.380Z,20.67
2018-07-23T20:09:34.129Z,20.57
2018-07-23T20:12:03.335Z,20.55
2018-07-23T20:14:32.411Z,20.53
2018-07-23T20:17:01.517Z,20.49
2018-07-23T20:19:30.170Z,20.44
2018-07-23T20:21:58.930Z,20.36
2018-07-23T20:24:27.607Z,20.32
2018-07-23T20:26:56.368Z,20.26
2018-07-23T20:29:25.021Z,20.15
2018-07-23T20:31:54.656Z,20.11
2018-07-23T20:34:23.432Z,20.04
2018-07-23T20:36:52.665Z,20.02
2018-07-23T20:39:21.489Z,19.89
2018-07-23T20:41:50.264Z,19.71
2018-07-23T20:44:19.181Z,19.56
2018-07-23T20:46:47.781Z,19.60
2018-07-23T20:49:16.410Z,19.61
2018-07-23T20:51:45.696Z,19.60
2018-07-23T20:54:14.616Z,19.59
2018-07-23T20:56:43.451Z,19.52
2018-07-23T20:59:12.047Z,19.49
2018-07-23T21:01:40.802Z,19.44
2018-07-23T21:04:09.598Z,19.40
2018-07-23T21:06:38.371Z,19.38
2018-07-23T21:09:08.370Z,19.29
2018-07-23T21:11:37.301Z,19.18
2018-07-23T21:14:06.245Z,19.17
2018-07-23T21:16:35.334Z,19.09
2018-07-23T21:19:04.956Z,19.08
2018-07-23T21:21:33.901Z,19.09
2018-07-23T21:24:02.997Z,19.02
2018-07-23T21:26:31.750Z,18.96
2018-07-23T21:29:00.451Z,18.95
2018-07-23T21:31:29.300Z,18.89
2018-07-23T21:33:57.961Z,18.70
2018-07-23T21:36:26.954Z,18.68
2018-07-23T21:38:55.617Z,18.65
2018-07-23T21:41:24.513Z,18.61
2018-07-23T21:43:53.160Z,18.62
2018-07-23T21:46:22.185Z,18.61
2018-07-23T21:48:50.784Z,18.55
2018-07-23T21:51:19.456Z,18.53
2018-07-23T21:53:48.041Z,18.53
2018-07-23T21:56:16.756Z,18.49
2018-07-23T21:58:45.321Z,18.37
2018-07-23T22:01:14.093Z,18.35
2018-07-23T22:03:43.651Z,18.36
2018-07-23T22:06:13.028Z,18.37
2018-07-23T22:08:41.733Z,18.29
2018-07-23T22:11:10.420Z,18.26
2018-07-23T22:13:39.034Z,18.24
2018-07-23T22:16:07.927Z,18.16
2018-07-23T22:18:36.695Z,18.07
2018-07-23T22:21:06.592Z,17.86
2018-07-23T22:23:35.331Z,17.68
2018-07-23T22:26:04.635Z,17.67
2018-07-23T22:28:37.859Z,17.69
2018-07-23T22:31:07.057Z,17.74
2018-07-23T22:33:35.960Z,17.72
2018-07-23T22:36:04.782Z,17.60
2018-07-23T22:38:33.657Z,17.56
2018-07-23T22:41:03.396Z,17.56
2018-07-23T22:43:32.248Z,17.57
2018-07-23T22:46:01.500Z,17.61
2018-07-23T22:48:30.180Z,17.59
2018-07-23T22:50:58.876Z,17.56
2018-07-23T22:53:27.776Z,17.59
2018-07-23T22:55:56.535Z,17.54
2018-07-23T22:58:25.384Z,17.55
2018-07-23T23:00:54.156Z,17.50
2018-07-23T23:03:23.159Z,17.51
2018-07-23T23:05:51.856Z,17.48
2018-07-23T23:08:21.501Z,17.43
2018-07-23T23:10:50.499Z,17.26
2018-07-23T23:13:19.320Z,17.18
2018-07-23T23:15:48.172Z,17.17
2018-07-23T23:18:17.045Z,17.16
2018-07-23T23:20:45.703Z,17.16
2018-07-23T23:23:14.783Z,17.11
2018-07-23T23:25:43.597Z,17.09
2018-07-23T23:28:12.486Z,16.93
2018-07-23T23:30:41.464Z,16.85
2018-07-23T23:33:10.184Z,16.87
2018-07-23T23:35:39.006Z,16.92
2018-07-23T23:38:08.190Z,16.88
2018-07-23T23:40:37.670Z,16.85
2018-07-23T23:43:06.737Z,16.82
2018-07-23T23:45:35.526Z,16.84
2018-07-23T23:48:04.179Z,16.72
2018-07-23T23:50:32.744Z,16.62
2018-07-23T23:53:01.299Z,16.64
2018-07-23T23:55:29.872Z,16.61
2018-07-23T23:57:58.422Z,16.64
